createdAt,value
2023-05-23T00:00:33.804Z,13.82
2023-05-23T00:03:03.095Z,13.92
2023-05-23T00:05:31.713Z,14.00
2023-05-23T00:07:59.930Z,13.79
2023-05-23T00:10:28.240Z,13.83
2023-05-23T00:12:58.194Z,13.78
2023-05-23T00:15:26.516Z,13.83
2023-05-23T00:17:56.305Z,13.86
2023-05-23T00:20:24.844Z,13.79
2023-05-23T00:22:54.529Z,13.88
2023-05-23T00:25:22.960Z,13.86
2023-05-23T00:27:51.197Z,13.94
2023-05-23T00:30:19.521Z,13.89
2023-05-23T00:32:47.861Z,13.90
2023-05-23T00:35:17.990Z,13.98
2023-05-23T00:37:46.227Z,13.86
2023-05-23T00:40:14.664Z,13.59
2023-05-23T00:42:43.077Z,13.61
2023-05-23T00:45:12.810Z,13.43
2023-05-23T00:47:41.391Z,13.36
2023-05-23T00:50:14.694Z,13.25
2023-05-23T00:52:46.207Z,13.25
2023-05-23T00:55:15.170Z,13.33
2023-05-23T00:57:44.707Z,13.46
2023-05-23T01:00:15.411Z,13.32
2023-05-23T01:02:46.571Z,13.22
2023-05-23T01:05:18.531Z,13.26
2023-05-23T01:07:48.611Z,13.33
2023-05-23T01:10:18.644Z,13.23
2023-05-23T01:12:58.230Z,13.30
2023-05-23T01:15:32.590Z,13.25
2023-05-23T01:18:04.540Z,13.27
2023-05-23T01:20:37.952Z,13.31
2023-05-23T01:23:31.148Z,13.34
2023-05-23T01:26:14.819Z,13.30
2023-05-23T01:28:47.452Z,13.26
2023-05-23T01:31:17.629Z,13.37
2023-05-23T01:33:50.115Z,13.37
2023-05-23T01:36:18.460Z,13.34
2023-05-23T01:38:46.680Z,13.36
2023-05-23T01:41:14.982Z,13.19
2023-05-23T01:43:44.953Z,13.21
2023-05-23T01:46:14.169Z,13.18
2023-05-23T01:48:43.216Z,13.17
2023-05-23T01:51:11.828Z,13.07
2023-05-23T01:53:40.277Z,12.99
2023-05-23T01:56:09.610Z,13.05
2023-05-23T01:58:37.889Z,13.00
2023-05-23T02:01:07.995Z,13.02
2023-05-23T02:03:38.171Z,12.93
2023-05-23T02:06:06.976Z,12.86
2023-05-23T02:08:36.254Z,12.95
2023-05-23T02:11:04.601Z,12.88
2023-05-23T02:13:32.863Z,12.99
2023-05-23T02:16:01.285Z,12.95
2023-05-23T02:18:30.952Z,12.92
2023-05-23T02:20:59.232Z,12.99
2023-05-23T02:23:27.468Z,12.97
2023-05-23T02:25:56.205Z,13.00
2023-05-23T02:28:24.511Z,12.94
2023-05-23T02:30:52.769Z,12.99
2023-05-23T02:33:21.785Z,13.08
2023-05-23T02:35:51.625Z,13.12
2023-05-23T02:38:20.907Z,13.05
2023-05-23T02:40:50.508Z,13.09
2023-05-23T02:43:19.171Z,13.08
2023-05-23T02:45:54.967Z,13.08
2023-05-23T02:48:23.306Z,13.15
2023-05-23T02:50:53.482Z,13.18
2023-05-23T02:53:22.659Z,13.20
2023-05-23T02:55:51.239Z,13.20
2023-05-23T02:58:20.808Z,13.17
2023-05-23T03:00:49.220Z,13.19
2023-05-23T03:03:18.580Z,13.22
2023-05-23T03:05:46.972Z,13.24
2023-05-23T03:08:16.915Z,13.24
2023-05-23T03:10:45.185Z,13.29
2023-05-23T03:13:13.407Z,13.31
2023-05-23T03:15:41.907Z,13.43
2023-05-23T03:18:11.097Z,13.36
2023-05-23T03:20:39.350Z,13.35
2023-05-23T03:23:07.589Z,13.43
2023-05-23T03:25:37.543Z,13.41
2023-05-23T03:28:06.334Z,13.36
2023-05-23T03:30:34.522Z,13.36
2023-05-23T03:33:03.149Z,13.36
2023-05-23T03:35:31.803Z,13.40
2023-05-23T03:38:00.204Z,13.45
2023-05-23T03:40:28.420Z,13.38
2023-05-23T03:43:05.714Z,13.33
2023-05-23T03:45:36.426Z,13.27
2023-05-23T03:48:09.501Z,13.33
2023-05-23T03:50:37.755Z,13.35
2023-05-23T03:53:06.112Z,13.40
2023-05-23T03:55:34.526Z,13.43
2023-05-23T03:58:04.595Z,13.48
2023-05-23T04:00:32.885Z,13.26
2023-05-23T04:03:02.843Z,13.36
2023-05-23T04:05:31.826Z,13.43
2023-05-23T04:08:02.315Z,13.34
2023-05-23T04:10:31.600Z,13.22
2023-05-23T04:13:00.603Z,13.09
2023-05-23T04:15:30.418Z,13.08
2023-05-23T04:18:04.775Z,12.96
2023-05-23T04:20:34.016Z,13.07
2023-05-23T04:23:02.340Z,13.01
2023-05-23T04:25:34.202Z,13.02
2023-05-23T04:28:35.907Z,13.01
2023-05-23T04:31:07.162Z,12.99
2023-05-23T04:33:38.032Z,12.91
2023-05-23T04:36:09.228Z,12.97
2023-05-23T04:38:41.095Z,12.94
2023-05-23T04:41:11.309Z,12.96
2023-05-23T04:44:04.832Z,13.02
2023-05-23T04:46:42.416Z,12.90
2023-05-23T04:49:34.236Z,12.99
2023-05-23T04:52:03.777Z,12.90
2023-05-23T04:54:33.671Z,12.93
2023-05-23T04:57:06.283Z,12.87
2023-05-23T04:59:35.011Z,12.91
2023-05-23T05:02:06.972Z,12.86
2023-05-23T05:04:36.396Z,12.81
2023-05-23T05:07:04.721Z,12.79
2023-05-23T05:09:33.066Z,12.82
2023-05-23T05:12:01.644Z,12.75
2023-05-23T05:14:30.711Z,12.69
2023-05-23T05:16:59.354Z,12.71
2023-05-23T05:19:36.544Z,12.69
2023-05-23T05:22:05.236Z,12.62
2023-05-23T05:24:34.292Z,12.64
2023-05-23T05:27:02.610Z,12.72
2023-05-23T05:29:33.859Z,12.73
2023-05-23T05:32:03.435Z,12.62
2023-05-23T05:34:32.364Z,12.73
2023-05-23T05:37:02.586Z,12.70
2023-05-23T05:39:30.826Z,12.79
2023-05-23T05:41:59.417Z,12.77
2023-05-23T05:44:27.976Z,12.85
2023-05-23T05:46:56.270Z,12.76
2023-05-23T05:49:24.557Z,12.86
2023-05-23T05:51:54.182Z,12.85
2023-05-23T05:54:23.785Z,13.09
2023-05-23T05:56:52.142Z,13.15
2023-05-23T05:59:20.500Z,13.25
2023-05-23T06:01:48.784Z,13.06
2023-05-23T06:04:17.210Z,12.90
2023-05-23T06:06:46.053Z,12.97
2023-05-23T06:09:14.351Z,12.87
2023-05-23T06:11:44.000Z,13.01
2023-05-23T06:14:12.480Z,12.94
2023-05-23T06:16:44.926Z,12.97
2023-05-23T06:19:13.202Z,12.99
2023-05-23T06:21:42.294Z,13.01
2023-05-23T06:24:12.333Z,13.08
2023-05-23T06:26:40.581Z,13.10
2023-05-23T06:29:11.323Z,13.04
2023-05-23T06:31:39.777Z,12.99
2023-05-23T06:34:08.084Z,12.88
2023-05-23T06:36:36.410Z,12.97
2023-05-23T06:39:04.759Z,13.03
2023-05-23T06:41:33.155Z,13.14
2023-05-23T06:44:01.485Z,13.22
2023-05-23T06:46:33.600Z,13.12
2023-05-23T06:49:14.276Z,13.10
2023-05-23T06:51:45.329Z,13.06
2023-05-23T06:54:13.942Z,13.19
2023-05-23T06:56:42.622Z,13.38
2023-05-23T06:59:11.056Z,13.37
2023-05-23T07:01:41.623Z,13.27
2023-05-23T07:04:09.972Z,13.24
2023-05-23T07:06:39.920Z,13.08
2023-05-23T07:09:09.406Z,13.04
2023-05-23T07:11:39.826Z,12.93
2023-05-23T07:14:09.668Z,12.88
2023-05-23T07:16:44.259Z,12.93
2023-05-23T07:19:12.686Z,13.03
2023-05-23T07:21:47.752Z,12.86
2023-05-23T07:24:18.759Z,12.73
2023-05-23T07:26:47.133Z,12.63
2023-05-23T07:29:16.425Z,12.56
2023-05-23T07:31:48.249Z,12.51
2023-05-23T07:34:16.703Z,12.58
2023-05-23T07:36:57.420Z,12.64
2023-05-23T07:39:28.083Z,12.75
2023-05-23T07:41:59.026Z,12.63
2023-05-23T07:44:27.392Z,12.66
2023-05-23T07:46:57.057Z,12.74
2023-05-23T07:49:26.744Z,12.73
2023-05-23T07:51:56.148Z,12.80
2023-05-23T07:54:24.419Z,12.72
2023-05-23T07:56:56.954Z,12.85
2023-05-23T07:59:26.945Z,12.81
2023-05-23T08:01:57.730Z,12.79
2023-05-23T08:04:27.936Z,12.73
2023-05-23T08:09:34.113Z,12.91
2023-05-23T08:12:02.513Z,12.86
2023-05-23T08:14:49.158Z,12.93
2023-05-23T08:17:34.530Z,12.86
2023-05-23T08:20:05.138Z,12.79
2023-05-23T08:22:33.485Z,12.65
2023-05-23T08:25:03.060Z,12.65
2023-05-23T08:27:32.434Z,12.72
2023-05-23T08:30:08.635Z,12.67
2023-05-23T08:32:42.132Z,12.78
2023-05-23T08:35:10.962Z,12.85
2023-05-23T08:37:46.180Z,12.97
2023-05-23T08:40:16.123Z,12.96
2023-05-23T08:42:49.441Z,13.34
2023-05-23T08:45:18.965Z,13.34
2023-05-23T08:47:48.818Z,13.53
2023-05-23T08:50:27.270Z,13.89
2023-05-23T08:52:57.377Z,14.10
2023-05-23T08:55:28.301Z,13.91
2023-05-23T08:58:00.460Z,14.06
2023-05-23T09:00:53.146Z,13.88
2023-05-23T09:03:24.024Z,13.93
2023-05-23T09:06:13.963Z,13.88
2023-05-23T09:08:46.023Z,13.82
2023-05-23T09:11:15.802Z,14.10
2023-05-23T09:13:46.075Z,14.19
2023-05-23T09:16:19.015Z,14.63
2023-05-23T09:18:53.170Z,15.23
2023-05-23T09:21:26.000Z,15.09
2023-05-23T09:24:07.304Z,14.66
2023-05-23T09:26:36.354Z,14.36
2023-05-23T09:29:07.465Z,14.81
2023-05-23T09:31:37.071Z,14.60
2023-05-23T09:34:10.878Z,14.70
2023-05-23T09:36:44.260Z,15.07
2023-05-23T09:39:14.052Z,15.40
2023-05-23T09:41:42.279Z,15.22
2023-05-23T09:44:11.034Z,14.82
2023-05-23T09:46:39.662Z,14.59
2023-05-23T09:49:18.991Z,14.59
2023-05-23T09:51:58.729Z,15.11
2023-05-23T09:54:27.263Z,15.53
2023-05-23T09:56:57.671Z,16.31
2023-05-23T09:59:29.585Z,15.55
2023-05-23T10:01:58.863Z,15.36
2023-05-23T10:04:32.630Z,15.55
2023-05-23T10:07:06.983Z,15.32
2023-05-23T10:09:39.114Z,15.60
2023-05-23T10:12:44.556Z,15.73
2023-05-23T10:15:16.801Z,15.57
2023-05-23T10:18:04.341Z,15.61
2023-05-23T10:20:36.583Z,15.40
2023-05-23T10:23:06.284Z,16.12
2023-05-23T10:25:37.165Z,16.98
2023-05-23T10:28:06.617Z,16.16
2023-05-23T10:30:36.010Z,16.14
2023-05-23T10:33:06.167Z,16.30
2023-05-23T10:35:47.288Z,15.84
2023-05-23T10:38:36.084Z,15.91
2023-05-23T10:41:11.854Z,15.77
2023-05-23T10:43:48.328Z,16.32
2023-05-23T10:46:16.901Z,16.98
2023-05-23T10:48:46.219Z,17.28
2023-05-23T10:51:17.317Z,16.72
2023-05-23T10:53:46.860Z,16.30
2023-05-23T10:56:22.454Z,16.35
2023-05-23T10:58:54.876Z,16.86
2023-05-23T11:01:23.809Z,17.39
2023-05-23T11:03:55.628Z,16.95
2023-05-23T11:06:35.247Z,16.88
2023-05-23T11:09:08.342Z,16.93
2023-05-23T11:11:53.926Z,16.95
2023-05-23T11:14:33.683Z,16.73
2023-05-23T11:17:02.613Z,16.73
2023-05-23T11:19:30.983Z,16.00
2023-05-23T11:22:02.138Z,16.39
2023-05-23T11:24:52.422Z,16.34
2023-05-23T11:27:27.895Z,16.77
2023-05-23T11:30:01.449Z,16.74
2023-05-23T11:32:31.295Z,16.42
2023-05-23T11:35:03.417Z,16.14
2023-05-23T11:37:33.455Z,17.19
2023-05-23T11:40:32.458Z,16.07
2023-05-23T11:43:01.884Z,16.51
2023-05-23T11:45:31.756Z,16.71
2023-05-23T11:48:00.324Z,16.14
2023-05-23T11:50:28.598Z,16.00
2023-05-23T11:52:58.235Z,16.55
2023-05-23T11:55:26.607Z,16.65
2023-05-23T11:57:57.558Z,16.65
2023-05-23T12:00:25.950Z,16.80
2023-05-23T12:02:54.367Z,16.14
2023-05-23T12:05:22.688Z,16.28
2023-05-23T12:07:51.181Z,16.61
2023-05-23T12:10:21.908Z,16.71
2023-05-23T12:12:52.520Z,16.63
2023-05-23T12:15:26.164Z,16.70
2023-05-23T12:17:55.488Z,17.08
2023-05-23T12:20:25.345Z,17.31
2023-05-23T12:22:55.491Z,17.20
2023-05-23T12:25:27.846Z,17.18
2023-05-23T12:27:56.375Z,16.25
2023-05-23T12:30:24.740Z,16.60
2023-05-23T12:32:53.057Z,17.01
2023-05-23T12:35:21.556Z,17.14
2023-05-23T12:37:49.843Z,16.95
2023-05-23T12:40:19.584Z,17.31
2023-05-23T12:42:52.636Z,16.76
2023-05-23T12:45:21.363Z,17.15
2023-05-23T12:47:51.386Z,17.14
2023-05-23T12:50:20.764Z,17.52
2023-05-23T12:52:49.014Z,17.28
2023-05-23T12:55:17.335Z,17.48
2023-05-23T12:57:45.661Z,16.67
2023-05-23T13:00:16.219Z,17.24
2023-05-23T13:02:44.585Z,17.91
2023-05-23T13:05:12.956Z,17.81
2023-05-23T13:07:41.305Z,17.52
2023-05-23T13:10:10.796Z,17.80
2023-05-23T13:12:39.062Z,17.60
2023-05-23T13:15:08.390Z,17.68
2023-05-23T13:17:38.040Z,17.58
2023-05-23T13:20:09.453Z,17.38
2023-05-23T13:22:37.760Z,17.21
2023-05-23T13:25:07.424Z,17.45
2023-05-23T13:27:36.215Z,18.02
2023-05-23T13:30:04.800Z,18.47
2023-05-23T13:32:33.238Z,18.87
2023-05-23T13:35:03.497Z,18.57
2023-05-23T13:37:32.198Z,17.65
2023-05-23T13:40:03.080Z,18.22
2023-05-23T13:42:31.453Z,18.21
2023-05-23T13:44:59.785Z,17.55
2023-05-23T13:47:28.047Z,17.48
2023-05-23T13:49:56.471Z,18.02
2023-05-23T13:52:26.626Z,17.85
2023-05-23T13:54:54.958Z,17.90
2023-05-23T13:57:23.295Z,17.94
2023-05-23T13:59:51.530Z,18.00
2023-05-23T14:02:19.840Z,17.98
2023-05-23T14:04:48.043Z,17.98
2023-05-23T14:07:16.948Z,18.03
2023-05-23T14:09:46.558Z,18.80
2023-05-23T14:12:14.842Z,18.66
2023-05-23T14:14:43.125Z,18.40
2023-05-23T14:17:16.025Z,18.19
2023-05-23T14:19:44.714Z,18.28
2023-05-23T14:22:13.042Z,18.35
2023-05-23T14:24:41.366Z,18.61
2023-05-23T14:27:11.532Z,18.19
2023-05-23T14:29:40.182Z,18.77
2023-05-23T14:32:08.526Z,19.61
2023-05-23T14:34:37.148Z,18.50
2023-05-23T14:37:05.929Z,19.36
2023-05-23T14:39:34.333Z,19.21
2023-05-23T14:42:03.097Z,19.50
2023-05-23T14:44:32.918Z,19.58
2023-05-23T14:47:01.256Z,18.80
2023-05-23T14:49:29.513Z,19.07
2023-05-23T14:51:57.956Z,19.88
2023-05-23T14:54:26.243Z,19.99
2023-05-23T14:56:54.478Z,19.03
2023-05-23T14:59:22.947Z,19.52
2023-05-23T15:01:52.757Z,19.76
2023-05-23T15:04:21.169Z,20.07
2023-05-23T15:06:50.922Z,18.73
2023-05-23T15:09:19.177Z,19.02
2023-05-23T15:11:49.385Z,20.59
2023-05-23T15:14:17.926Z,19.24
2023-05-23T15:16:48.876Z,18.69
2023-05-23T15:19:18.743Z,19.46
2023-05-23T15:21:51.219Z,20.04
2023-05-23T15:24:20.323Z,19.35
2023-05-23T15:26:48.895Z,19.83
2023-05-23T15:29:18.236Z,19.53
2023-05-23T15:31:46.689Z,19.68
2023-05-23T15:34:14.978Z,18.57
2023-05-23T15:36:44.591Z,18.26
2023-05-23T15:39:13.215Z,19.08
2023-05-23T15:41:41.530Z,19.40
2023-05-23T15:44:10.587Z,20.55
2023-05-23T15:46:40.345Z,18.85
2023-05-23T15:49:21.608Z,19.01
2023-05-23T15:51:55.614Z,19.01
2023-05-23T15:54:24.048Z,19.74
2023-05-23T15:56:52.263Z,19.15
2023-05-23T15:59:21.172Z,19.51
2023-05-23T16:01:49.544Z,18.87
2023-05-23T16:04:17.796Z,19.17
2023-05-23T16:06:46.047Z,20.05
2023-05-23T16:09:15.682Z,17.96
2023-05-23T16:11:44.133Z,17.96
2023-05-23T16:14:12.385Z,18.03
2023-05-23T16:16:40.865Z,19.18
2023-05-23T16:19:09.252Z,19.91
2023-05-23T16:21:37.573Z,19.35
2023-05-23T16:24:06.548Z,19.60
2023-05-23T16:26:36.195Z,19.10
2023-05-23T16:29:04.417Z,18.52
2023-05-23T16:31:32.738Z,19.85
2023-05-23T16:34:01.045Z,18.83
2023-05-23T16:36:29.581Z,18.67
2023-05-23T16:38:58.024Z,18.65
2023-05-23T16:41:26.405Z,18.56
2023-05-23T16:43:56.423Z,18.64
2023-05-23T16:46:24.717Z,18.34
2023-05-23T16:48:53.154Z,18.19
2023-05-23T16:51:21.399Z,17.83
2023-05-23T16:53:49.709Z,18.85
2023-05-23T16:56:17.944Z,19.27
2023-05-23T16:58:46.671Z,18.97
2023-05-23T17:01:17.093Z,18.56
2023-05-23T17:03:45.599Z,18.52
2023-05-23T17:06:14.033Z,18.39
2023-05-23T17:08:42.266Z,17.70
2023-05-23T17:11:10.570Z,17.88
2023-05-23T17:13:38.833Z,17.73
2023-05-23T17:16:07.131Z,18.23
2023-05-23T17:18:37.299Z,17.60
2023-05-23T17:21:05.624Z,17.93
2023-05-23T17:23:33.865Z,17.31
2023-05-23T17:26:02.130Z,17.01
2023-05-23T17:28:30.400Z,16.95
2023-05-23T17:30:58.633Z,16.60
2023-05-23T17:33:27.051Z,15.82
2023-05-23T17:35:56.710Z,15.42
2023-05-23T17:38:25.141Z,15.08
2023-05-23T17:40:53.573Z,14.88
2023-05-23T17:43:22.046Z,14.65
2023-05-23T17:45:50.467Z,14.49
2023-05-23T17:48:18.787Z,14.59
2023-05-23T17:50:47.133Z,14.25
2023-05-23T17:53:16.914Z,14.14
2023-05-23T17:55:45.232Z,14.09
2023-05-23T17:58:13.641Z,14.22
2023-05-23T18:00:42.048Z,14.26
2023-05-23T18:03:11.275Z,14.19
2023-05-23T18:05:39.623Z,13.96
2023-05-23T18:08:07.942Z,13.88
2023-05-23T18:10:38.118Z,13.81
2023-05-23T18:13:06.445Z,13.83
2023-05-23T18:15:34.874Z,13.73
2023-05-23T18:18:03.207Z,13.67
2023-05-23T18:20:31.576Z,13.56
2023-05-23T18:22:59.772Z,13.43
2023-05-23T18:25:28.377Z,13.52
2023-05-23T18:27:59.541Z,13.64
2023-05-23T18:30:28.449Z,13.46
2023-05-23T18:32:57.074Z,13.45
2023-05-23T18:35:26.474Z,13.23
2023-05-23T18:37:55.027Z,13.17
2023-05-23T18:40:24.297Z,13.04
2023-05-23T18:42:52.708Z,13.10
2023-05-23T18:45:22.533Z,13.08
2023-05-23T18:47:51.197Z,13.08
2023-05-23T18:50:20.359Z,13.01
2023-05-23T18:52:48.729Z,12.88
2023-05-23T18:55:17.541Z,12.82
2023-05-23T18:57:45.851Z,12.79
2023-05-23T19:00:15.124Z,12.77
2023-05-23T19:02:45.826Z,12.75
2023-05-23T19:05:14.674Z,12.73
2023-05-23T19:07:42.912Z,12.60
2023-05-23T19:10:12.126Z,12.53
2023-05-23T19:12:40.623Z,12.53
2023-05-23T19:15:11.339Z,12.42
2023-05-23T19:17:39.847Z,12.31
2023-05-23T19:20:10.674Z,12.32
2023-05-23T19:22:50.997Z,12.29
2023-05-23T19:25:21.016Z,12.25
2023-05-23T19:27:49.336Z,12.15
2023-05-23T19:30:17.620Z,12.13
2023-05-23T19:32:45.938Z,12.05
2023-05-23T19:35:16.978Z,11.94
2023-05-23T19:37:46.020Z,11.99
2023-05-23T19:40:14.602Z,11.94
2023-05-23T19:42:42.876Z,11.97
2023-05-23T19:45:12.296Z,11.82
2023-05-23T19:47:40.868Z,11.81
2023-05-23T19:50:11.953Z,11.78
2023-05-23T19:52:42.312Z,11.76
2023-05-23T19:55:11.194Z,11.78
2023-05-23T19:57:39.499Z,11.71
2023-05-23T20:00:09.913Z,11.70
2023-05-23T20:02:38.587Z,11.70
2023-05-23T20:05:10.128Z,11.62
2023-05-23T20:07:39.693Z,11.59
2023-05-23T20:10:10.314Z,11.60
2023-05-23T20:12:38.639Z,11.49
2023-05-23T20:15:07.881Z,11.46
2023-05-23T20:17:36.422Z,11.39
2023-05-23T20:20:05.142Z,11.36
2023-05-23T20:22:33.469Z,11.32
2023-05-23T20:25:01.781Z,11.32
2023-05-23T20:27:31.547Z,11.24
2023-05-23T20:30:00.949Z,11.25
2023-05-23T20:32:29.326Z,11.16
2023-05-23T20:34:57.585Z,11.19
2023-05-23T20:37:28.224Z,11.05
2023-05-23T20:39:56.697Z,11.07
2023-05-23T20:42:26.646Z,11.05
2023-05-23T20:44:57.082Z,11.20
2023-05-23T20:47:25.923Z,11.08
2023-05-23T20:49:54.254Z,11.08
2023-05-23T20:52:23.002Z,10.99
2023-05-23T20:54:52.442Z,10.98
2023-05-23T20:57:21.990Z,10.88
2023-05-23T20:59:50.513Z,10.89
2023-05-23T21:02:20.179Z,10.86
2023-05-23T21:04:48.536Z,10.94
2023-05-23T21:07:16.898Z,10.96
2023-05-23T21:09:45.188Z,10.93
2023-05-23T21:12:13.478Z,10.80
2023-05-23T21:14:41.778Z,10.72
2023-05-23T21:17:16.769Z,10.75
2023-05-23T21:19:46.591Z,10.74
2023-05-23T21:22:14.873Z,10.79
2023-05-23T21:24:43.408Z,10.70
2023-05-23T21:27:12.202Z,10.52
2023-05-23T21:29:40.633Z,10.54
2023-05-23T21:32:08.974Z,10.60
2023-05-23T21:34:37.231Z,10.55
2023-05-23T21:37:07.014Z,10.48
2023-05-23T21:39:50.057Z,10.46
2023-05-23T21:42:20.794Z,10.55
2023-05-23T21:44:49.486Z,10.54
2023-05-23T21:47:17.734Z,10.46
2023-05-23T21:49:46.035Z,10.52
2023-05-23T21:52:15.759Z,10.46
2023-05-23T21:54:45.961Z,10.40
2023-05-23T21:57:14.322Z,10.37
2023-05-23T21:59:43.767Z,10.49
2023-05-23T22:02:12.296Z,10.39
2023-05-23T22:04:40.725Z,10.46
2023-05-23T22:07:08.991Z,10.45
2023-05-23T22:09:38.622Z,10.49
2023-05-23T22:12:07.566Z,10.29
2023-05-23T22:14:35.844Z,10.25
2023-05-23T22:17:04.410Z,10.15
2023-05-23T22:19:32.674Z,10.16
2023-05-23T22:22:01.112Z,10.14
2023-05-23T22:24:29.630Z,10.11
2023-05-23T22:27:00.731Z,10.07
2023-05-23T22:29:29.062Z,10.06
2023-05-23T22:31:57.354Z,10.05
2023-05-23T22:34:25.796Z,10.09
2023-05-23T22:36:54.044Z,9.95
2023-05-23T22:39:22.284Z,9.96
2023-05-23T22:41:50.653Z,10.09
2023-05-23T22:44:20.368Z,9.94
2023-05-23T22:46:48.619Z,9.90
2023-05-23T22:49:16.997Z,10.00
2023-05-23T22:51:45.338Z,10.06
2023-05-23T22:54:13.599Z,9.94
2023-05-23T22:56:41.900Z,10.04
2023-05-23T22:59:10.269Z,9.92
2023-05-23T23:01:40.025Z,9.98
2023-05-23T23:04:08.317Z,9.81
2023-05-23T23:06:36.584Z,9.84
2023-05-23T23:09:05.637Z,9.81
2023-05-23T23:11:33.861Z,9.90
2023-05-23T23:14:02.205Z,9.91
2023-05-23T23:16:30.741Z,9.76
2023-05-23T23:19:00.440Z,9.67
2023-05-23T23:21:28.698Z,9.62
2023-05-23T23:23:56.912Z,9.46
2023-05-23T23:26:25.208Z,9.47
2023-05-23T23:28:53.476Z,9.48
2023-05-23T23:31:21.813Z,9.42
2023-05-23T23:33:50.066Z,9.32
2023-05-23T23:36:19.658Z,9.17
2023-05-23T23:38:48.157Z,9.09
2023-05-23T23:41:16.388Z,9.09
2023-05-23T23:43:44.638Z,9.09
2023-05-23T23:46:13.367Z,9.03
2023-05-23T23:48:41.624Z,9.03
2023-05-23T23:51:09.996Z,8.93
2023-05-23T23:53:39.675Z,8.94
2023-05-23T23:56:07.984Z,8.87
2023-05-23T23:58:36.479Z,8.81
